sensor_id;sensor_type;location;lat;lon;timestamp;pressure;altitude;pressure_sealevel;temperature;humidity
55347;BME280;41218;55.700;38.270;2022-12-11T00:02:12;99009.38;;;0.70;77.04
55347;BME280;41218;55.700;38.270;2022-12-11T00:07:12;99016.75;;;0.69;77.02
55347;BME280;41218;55.700;38.270;2022-12-11T00:12:13;99018.50;;;0.74;77.21
55347;BME280;41218;55.700;38.270;2022-12-11T00:17:13;99010.19;;;0.70;77.09
55347;BME280;41218;55.700;38.270;2022-12-11T00:22:14;98997.06;;;0.64;76.87
55347;BME280;41218;55.700;38.270;2022-12-11T00:27:14;99001.72;;;0.72;76.97
55347;BME280;41218;55.700;38.270;2022-12-11T00:32:15;98984.91;;;0.70;76.78
55347;BME280;41218;55.700;38.270;2022-12-11T00:37:15;98977.53;;;0.70;76.92
55347;BME280;41218;55.700;38.270;2022-12-11T00:42:16;99003.28;;;0.73;76.89
55347;BME280;41218;55.700;38.270;2022-12-11T00:47:17;99004.91;;;0.74;77.06
55347;BME280;41218;55.700;38.270;2022-12-11T00:52:17;99013.38;;;0.72;76.87
55347;BME280;41218;55.700;38.270;2022-12-11T00:57:17;98998.50;;;0.70;77.11
55347;BME280;41218;55.700;38.270;2022-12-11T01:02:18;98995.47;;;0.71;76.87
55347;BME280;41218;55.700;38.270;2022-12-11T01:07:19;98982.81;;;0.67;77.17
55347;BME280;41218;55.700;38.270;2022-12-11T01:12:19;99010.03;;;0.75;76.95
55347;BME280;41218;55.700;38.270;2022-12-11T01:17:20;99010.50;;;0.69;77.01
55347;BME280;41218;55.700;38.270;2022-12-11T01:22:20;99020.09;;;0.75;76.76
55347;BME280;41218;55.700;38.270;2022-12-11T01:27:21;99019.78;;;0.76;76.80
55347;BME280;41218;55.700;38.270;2022-12-11T01:32:21;99013.38;;;0.72;76.96
55347;BME280;41218;55.700;38.270;2022-12-11T01:37:22;99011.13;;;0.74;76.74
55347;BME280;41218;55.700;38.270;2022-12-11T01:42:22;99017.72;;;0.73;76.60
55347;BME280;41218;55.700;38.270;2022-12-11T01:47:24;99026.47;;;0.79;77.44
55347;BME280;41218;55.700;38.270;2022-12-11T01:52:24;99032.59;;;0.76;76.87
55347;BME280;41218;55.700;38.270;2022-12-11T01:57:25;99023.31;;;0.68;76.72
55347;BME280;41218;55.700;38.270;2022-12-11T02:02:29;99038.34;;;0.74;77.04
55347;BME280;41218;55.700;38.270;2022-12-11T02:07:36;99029.53;;;0.69;76.93
55347;BME280;41218;55.700;38.270;2022-12-11T02:12:45;99031.16;;;0.70;77.02
55347;BME280;41218;55.700;38.270;2022-12-11T02:28:30;99034.03;;;0.73;76.96
55347;BME280;41218;55.700;38.270;2022-12-11T02:33:42;99023.31;;;0.68;77.30
55347;BME280;41218;55.700;38.270;2022-12-11T02:38:44;99035.31;;;0.76;77.20
55347;BME280;41218;55.700;38.270;2022-12-11T02:43:50;99032.59;;;0.67;76.86
55347;BME280;41218;55.700;38.270;2022-12-11T02:48:52;99054.97;;;0.73;76.64
55347;BME280;41218;55.700;38.270;2022-12-11T02:53:56;99050.69;;;0.63;76.72
55347;BME280;41218;55.700;38.270;2022-12-11T02:59:00;99051.94;;;0.66;76.90
55347;BME280;41218;55.700;38.270;2022-12-11T03:04:03;99068.75;;;0.68;77.45
55347;BME280;41218;55.700;38.270;2022-12-11T03:09:05;99079.31;;;0.78;76.92
55347;BME280;41218;55.700;38.270;2022-12-11T03:14:06;99066.97;;;0.72;77.19
55347;BME280;41218;55.700;38.270;2022-12-11T03:19:24;99086.00;;;0.80;77.24
55347;BME280;41218;55.700;38.270;2022-12-11T03:29:56;99098.50;;;0.82;76.98
55347;BME280;41218;55.700;38.270;2022-12-11T03:35:13;99085.88;;;0.68;77.24
55347;BME280;41218;55.700;38.270;2022-12-11T03:40:18;99108.09;;;0.79;77.22
55347;BME280;41218;55.700;38.270;2022-12-11T03:45:21;99121.56;;;0.84;77.10
55347;BME280;41218;55.700;38.270;2022-12-11T03:50:25;99115.47;;;0.78;77.44
55347;BME280;41218;55.700;38.270;2022-12-11T03:55:28;99116.41;;;0.83;77.20
55347;BME280;41218;55.700;38.270;2022-12-11T04:00:30;99101.53;;;0.80;76.69
55347;BME280;41218;55.700;38.270;2022-12-11T04:05:31;99114.00;;;0.81;76.93
55347;BME280;41218;55.700;38.270;2022-12-11T04:10:34;99127.78;;;0.76;76.80
55347;BME280;41218;55.700;38.270;2022-12-11T04:15:35;99145.88;;;0.80;76.84
55347;BME280;41218;55.700;38.270;2022-12-11T04:20:36;99147.63;;;0.76;76.87
55347;BME280;41218;55.700;38.270;2022-12-11T04:26:11;99152.28;;;0.76;77.21
55347;BME280;41218;55.700;38.270;2022-12-11T04:31:15;99160.44;;;0.76;76.84
55347;BME280;41218;55.700;38.270;2022-12-11T04:36:16;99155.97;;;0.71;76.75
55347;BME280;41218;55.700;38.270;2022-12-11T04:41:17;99166.66;;;0.76;76.92
55347;BME280;41218;55.700;38.270;2022-12-11T04:46:22;99166.00;;;0.71;76.95
55347;BME280;41218;55.700;38.270;2022-12-11T04:51:23;99172.91;;;0.77;77.07
55347;BME280;41218;55.700;38.270;2022-12-11T04:56:24;99168.72;;;0.71;76.85
55347;BME280;41218;55.700;38.270;2022-12-11T05:01:24;99163.94;;;0.68;77.01
55347;BME280;41218;55.700;38.270;2022-12-11T05:06:25;99174.81;;;0.68;77.14
55347;BME280;41218;55.700;38.270;2022-12-11T05:11:25;99178.03;;;0.70;77.04
55347;BME280;41218;55.700;38.270;2022-12-11T05:16:27;99173.88;;;0.72;76.79
55347;BME280;41218;55.700;38.270;2022-12-11T05:21:27;99166.31;;;0.60;76.89
55347;BME280;41218;55.700;38.270;2022-12-11T05:26:28;99169.38;;;0.59;77.01
55347;BME280;41218;55.700;38.270;2022-12-11T05:31:28;99177.53;;;0.59;77.07
55347;BME280;41218;55.700;38.270;2022-12-11T05:36:32;99198.47;;;0.58;77.04
55347;BME280;41218;55.700;38.270;2022-12-11T05:41:32;99199.44;;;0.54;77.09
55347;BME280;41218;55.700;38.270;2022-12-11T05:46:33;99201.97;;;0.50;77.39
55347;BME280;41218;55.700;38.270;2022-12-11T05:51:34;99225.66;;;0.58;76.95
55347;BME280;41218;55.700;38.270;2022-12-11T05:56:35;99232.56;;;0.56;77.11
55347;BME280;41218;55.700;38.270;2022-12-11T06:01:39;99246.16;;;0.56;77.05
55347;BME280;41218;55.700;38.270;2022-12-11T06:06:40;99257.81;;;0.56;77.13
55347;BME280;41218;55.700;38.270;2022-12-11T06:11:42;99252.84;;;0.50;77.02
55347;BME280;41218;55.700;38.270;2022-12-11T06:16:43;99268.38;;;0.49;77.07
55347;BME280;41218;55.700;38.270;2022-12-11T06:21:44;99281.78;;;0.46;76.98
55347;BME280;41218;55.700;38.270;2022-12-11T06:26:45;99302.94;;;0.49;77.17
55347;BME280;41218;55.700;38.270;2022-12-11T06:31:45;99327.91;;;0.51;77.32
55347;BME280;41218;55.700;38.270;2022-12-11T06:36:46;99325.97;;;0.51;77.13
55347;BME280;41218;55.700;38.270;2022-12-11T06:41:46;99321.13;;;0.48;76.94
55347;BME280;41218;55.700;38.270;2022-12-11T06:46:47;99317.75;;;0.43;77.04
55347;BME280;41218;55.700;38.270;2022-12-11T06:51:48;99312.16;;;0.39;77.37
55347;BME280;41218;55.700;38.270;2022-12-11T06:56:50;99313.25;;;0.38;77.05
55347;BME280;41218;55.700;38.270;2022-12-11T07:01:50;99319.81;;;0.37;76.92
55347;BME280;41218;55.700;38.270;2022-12-11T07:06:51;99323.34;;;0.37;77.15
55347;BME280;41218;55.700;38.270;2022-12-11T07:11:52;99315.78;;;0.34;77.12
55347;BME280;41218;55.700;38.270;2022-12-11T07:16:53;99312.91;;;0.31;77.42
55347;BME280;41218;55.700;38.270;2022-12-11T07:21:53;99324.13;;;0.38;77.24
55347;BME280;41218;55.700;38.270;2022-12-11T07:26:54;99343.34;;;0.42;77.36
55347;BME280;41218;55.700;38.270;2022-12-11T07:31:54;99327.16;;;0.36;77.16
55347;BME280;41218;55.700;38.270;2022-12-11T07:36:55;99364.50;;;0.45;77.18
55347;BME280;41218;55.700;38.270;2022-12-11T07:41:55;99353.72;;;0.39;76.74
55347;BME280;41218;55.700;38.270;2022-12-11T07:46:56;99361.41;;;0.37;77.00
55347;BME280;41218;55.700;38.270;2022-12-11T07:51:56;99365.91;;;0.42;76.71
55347;BME280;41218;55.700;38.270;2022-12-11T07:56:57;99371.63;;;0.40;77.19
55347;BME280;41218;55.700;38.270;2022-12-11T08:01:57;99372.28;;;0.37;77.46
55347;BME280;41218;55.700;38.270;2022-12-11T08:06:58;99356.63;;;0.43;77.12
55347;BME280;41218;55.700;38.270;2022-12-11T08:11:58;99357.63;;;0.47;76.94
55347;BME280;41218;55.700;38.270;2022-12-11T08:16:59;99357.63;;;0.47;76.85
55347;BME280;41218;55.700;38.270;2022-12-11T08:22:02;99375.84;;;0.47;77.13
55347;BME280;41218;55.700;38.270;2022-12-11T08:27:03;99397.63;;;0.47;76.88
55347;BME280;41218;55.700;38.270;2022-12-11T08:32:04;99390.09;;;0.52;77.19
55347;BME280;41218;55.700;38.270;2022-12-11T08:37:04;99366.88;;;0.46;77.18
55347;BME280;41218;55.700;38.270;2022-12-11T08:42:05;99370.09;;;0.48;77.19
55347;BME280;41218;55.700;38.270;2022-12-11T08:47:06;99392.53;;;0.54;77.00
55347;BME280;41218;55.700;38.270;2022-12-11T08:52:09;99385.31;;;0.49;77.04
55347;BME280;41218;55.700;38.270;2022-12-11T08:57:09;99390.56;;;0.46;77.12
55347;BME280;41218;55.700;38.270;2022-12-11T09:02:10;99411.06;;;0.52;76.82
55347;BME280;41218;55.700;38.270;2022-12-11T09:07:12;99409.28;;;0.47;77.35
55347;BME280;41218;55.700;38.270;2022-12-11T09:12:12;99424.84;;;0.55;77.13
55347;BME280;41218;55.700;38.270;2022-12-11T09:17:13;99431.28;;;0.59;77.28
55347;BME280;41218;55.700;38.270;2022-12-11T09:22:13;99434.59;;;0.56;77.01
55347;BME280;41218;55.700;38.270;2022-12-11T09:27:14;99444.06;;;0.59;76.86
55347;BME280;41218;55.700;38.270;2022-12-11T09:32:14;99458.28;;;0.56;76.65
55347;BME280;41218;55.700;38.270;2022-12-11T09:37:15;99455.06;;;0.54;77.00
55347;BME280;41218;55.700;38.270;2022-12-11T09:47:41;99477.81;;;0.58;76.76
55347;BME280;41218;55.700;38.270;2022-12-11T09:58:12;99461.38;;;0.40;76.46
55347;BME280;41218;55.700;38.270;2022-12-11T10:08:48;99462.88;;;0.47;76.87
55347;BME280;41218;55.700;38.270;2022-12-11T10:14:12;99462.88;;;0.47;76.86
55347;BME280;41218;55.700;38.270;2022-12-11T10:19:20;99470.00;;;0.43;76.86
55347;BME280;41218;55.700;38.270;2022-12-11T10:24:28;99478.81;;;0.39;76.81
55347;BME280;41218;55.700;38.270;2022-12-11T10:29:32;99480.53;;;0.35;76.64
55347;BME280;41218;55.700;38.270;2022-12-11T10:34:39;99475.59;;;0.37;76.96
55347;BME280;41218;55.700;38.270;2022-12-11T10:39:41;99469.03;;;0.38;76.85
55347;BME280;41218;55.700;38.270;2022-12-11T10:44:54;99466.75;;;0.32;76.71
55347;BME280;41218;55.700;38.270;2022-12-11T10:49:57;99464.31;;;0.30;76.65
55347;BME280;41218;55.700;38.270;2022-12-11T10:55:20;99471.88;;;0.33;76.69
55347;BME280;41218;55.700;38.270;2022-12-11T11:00:35;99478.84;;;0.26;76.93
55347;BME280;41218;55.700;38.270;2022-12-11T11:05:36;99479.06;;;0.29;76.49
55347;BME280;41218;55.700;38.270;2022-12-11T11:10:37;99463.97;;;0.23;76.44
55347;BME280;41218;55.700;38.270;2022-12-11T11:15:49;99470.34;;;0.18;76.63
55347;BME280;41218;55.700;38.270;2022-12-11T11:20:57;99464.91;;;0.18;76.67
55347;BME280;41218;55.700;38.270;2022-12-11T11:26:00;99465.69;;;0.19;76.90
55347;BME280;41218;55.700;38.270;2022-12-11T11:36:06;99463.47;;;0.21;76.82
55347;BME280;41218;55.700;38.270;2022-12-11T11:41:17;99455.94;;;0.18;76.67
55347;BME280;41218;55.700;38.270;2022-12-11T11:46:24;99447.22;;;0.07;76.64
55347;BME280;41218;55.700;38.270;2022-12-11T11:51:33;99452.84;;;0.11;76.74
55347;BME280;41218;55.700;38.270;2022-12-11T11:56:36;99457.78;;;0.09;77.15
55347;BME280;41218;55.700;38.270;2022-12-11T12:01:37;99448.63;;;0.05;76.81
55347;BME280;41218;55.700;38.270;2022-12-11T12:06:48;99467.22;;;0.11;76.94
55347;BME280;41218;55.700;38.270;2022-12-11T12:33:10;99498.34;;;0.05;76.94
55347;BME280;41218;55.700;38.270;2022-12-11T12:48:44;99478.53;;;0.05;77.34
55347;BME280;41218;55.700;38.270;2022-12-11T12:53:56;99481.44;;;0.08;77.20
55347;BME280;41218;55.700;38.270;2022-12-11T12:58:57;99487.69;;;0.09;77.07
55347;BME280;41218;55.700;38.270;2022-12-11T13:04:03;99483.84;;;0.10;77.18
55347;BME280;41218;55.700;38.270;2022-12-11T13:24:29;99461.50;;;0.13;77.09
55347;BME280;41218;55.700;38.270;2022-12-11T13:29:36;99470.75;;;0.12;77.06
55347;BME280;41218;55.700;38.270;2022-12-11T13:34:41;99453.94;;;0.10;77.29
55347;BME280;41218;55.700;38.270;2022-12-11T13:39:48;99458.28;;;0.11;77.65
55347;BME280;41218;55.700;38.270;2022-12-11T13:44:49;99459.13;;;0.20;77.30
55347;BME280;41218;55.700;38.270;2022-12-11T13:49:59;99432.59;;;0.17;77.06
55347;BME280;41218;55.700;38.270;2022-12-11T13:55:16;99427.84;;;0.23;77.57
55347;BME280;41218;55.700;38.270;2022-12-11T14:00:26;99434.25;;;0.27;77.39
55347;BME280;41218;55.700;38.270;2022-12-11T14:05:27;99407.50;;;0.20;77.60
55347;BME280;41218;55.700;38.270;2022-12-11T14:10:30;99434.06;;;0.23;77.52
55347;BME280;41218;55.700;38.270;2022-12-11T14:15:32;99432.16;;;0.24;77.72
55347;BME280;41218;55.700;38.270;2022-12-11T14:20:34;99416.47;;;0.21;77.50
55347;BME280;41218;55.700;38.270;2022-12-11T14:25:35;99411.53;;;0.23;77.18
55347;BME280;41218;55.700;38.270;2022-12-11T14:30:37;99391.13;;;0.11;77.26
55347;BME280;41218;55.700;38.270;2022-12-11T14:35:40;99407.50;;;0.20;77.41
55347;BME280;41218;55.700;38.270;2022-12-11T14:40:45;99405.09;;;0.18;77.70
55347;BME280;41218;55.700;38.270;2022-12-11T14:45:47;99414.66;;;0.16;77.22
55347;BME280;41218;55.700;38.270;2022-12-11T14:50:54;99425.41;;;0.21;77.18
55347;BME280;41218;55.700;38.270;2022-12-11T14:56:00;99400.56;;;0.14;77.57
55347;BME280;41218;55.700;38.270;2022-12-11T15:01:20;99409.41;;;0.19;77.70
55347;BME280;41218;55.700;38.270;2022-12-11T15:06:24;99402.88;;;0.21;77.73
55347;BME280;41218;55.700;38.270;2022-12-11T15:11:30;99395.97;;;0.14;77.45
55347;BME280;41218;55.700;38.270;2022-12-11T15:16:33;99386.38;;;0.17;77.92
55347;BME280;41218;55.700;38.270;2022-12-11T15:21:36;99377.19;;;0.27;77.38
55347;BME280;41218;55.700;38.270;2022-12-11T15:26:43;99376.84;;;0.28;77.76
55347;BME280;41218;55.700;38.270;2022-12-11T15:31:44;99342.44;;;0.24;77.32
55347;BME280;41218;55.700;38.270;2022-12-11T15:36:44;99334.00;;;0.25;77.22
55347;BME280;41218;55.700;38.270;2022-12-11T15:41:45;99306.09;;;0.11;77.94
55347;BME280;41218;55.700;38.270;2022-12-11T15:46:45;99312.63;;;0.10;77.74
55347;BME280;41218;55.700;38.270;2022-12-11T15:51:46;99295.06;;;0.16;77.61
55347;BME280;41218;55.700;38.270;2022-12-11T15:56:46;99296.81;;;0.12;77.93
55347;BME280;41218;55.700;38.270;2022-12-11T16:01:47;99273.25;;;-0.02;77.88
55347;BME280;41218;55.700;38.270;2022-12-11T16:06:48;99312.50;;;0.15;77.31
55347;BME280;41218;55.700;38.270;2022-12-11T16:11:48;99301.16;;;0.13;78.01
55347;BME280;41218;55.700;38.270;2022-12-11T16:16:49;99301.19;;;0.22;77.96
55347;BME280;41218;55.700;38.270;2022-12-11T16:21:51;99292.84;;;0.18;78.06
55347;BME280;41218;55.700;38.270;2022-12-11T16:26:51;99295.13;;;0.25;77.96
55347;BME280;41218;55.700;38.270;2022-12-11T16:31:52;99282.84;;;0.27;77.76
55347;BME280;41218;55.700;38.270;2022-12-11T16:36:53;99258.38;;;0.27;77.83
55347;BME280;41218;55.700;38.270;2022-12-11T16:41:56;99266.69;;;0.31;78.22
55347;BME280;41218;55.700;38.270;2022-12-11T16:46:57;99269.91;;;0.33;78.02
55347;BME280;41218;55.700;38.270;2022-12-11T16:51:57;99264.97;;;0.35;78.34
55347;BME280;41218;55.700;38.270;2022-12-11T16:56:58;99236.03;;;0.39;77.80
55347;BME280;41218;55.700;38.270;2022-12-11T17:01:58;99237.28;;;0.33;78.10
55347;BME280;41218;55.700;38.270;2022-12-11T17:06:59;99237.13;;;0.38;77.97
55347;BME280;41218;55.700;38.270;2022-12-11T17:12:00;99237.50;;;0.45;78.11
55347;BME280;41218;55.700;38.270;2022-12-11T17:17:01;99223.59;;;0.47;78.14
55347;BME280;41218;55.700;38.270;2022-12-11T17:22:02;99211.09;;;0.46;78.29
55347;BME280;41218;55.700;38.270;2022-12-11T17:27:04;99212.72;;;0.47;78.19
55347;BME280;41218;55.700;38.270;2022-12-11T17:32:05;99187.75;;;0.45;78.21
55347;BME280;41218;55.700;38.270;2022-12-11T17:37:06;99192.56;;;0.56;77.96
55347;BME280;41218;55.700;38.270;2022-12-11T17:42:07;99172.06;;;0.50;77.99
55347;BME280;41218;55.700;38.270;2022-12-11T17:47:08;99157.38;;;0.51;78.07
55347;BME280;41218;55.700;38.270;2022-12-11T17:52:12;99145.03;;;0.54;78.33
55347;BME280;41218;55.700;38.270;2022-12-11T17:57:13;99154.03;;;0.63;78.40
55347;BME280;41218;55.700;38.270;2022-12-11T18:02:14;99144.91;;;0.59;78.62
55347;BME280;41218;55.700;38.270;2022-12-11T18:07:15;99144.13;;;0.67;78.19
55347;BME280;41218;55.700;38.270;2022-12-11T18:12:16;99132.75;;;0.65;78.39
55347;BME280;41218;55.700;38.270;2022-12-11T18:17:17;99116.09;;;0.67;78.71
55347;BME280;41218;55.700;38.270;2022-12-11T18:22:18;99099.47;;;0.68;78.34
55347;BME280;41218;55.700;38.270;2022-12-11T18:27:19;99093.88;;;0.73;78.33
55347;BME280;41218;55.700;38.270;2022-12-11T18:32:20;99082.50;;;0.80;78.58
55347;BME280;41218;55.700;38.270;2022-12-11T18:37:21;99059.94;;;0.79;78.15
55347;BME280;41218;55.700;38.270;2022-12-11T18:42:22;99052.25;;;0.82;78.57
55347;BME280;41218;55.700;38.270;2022-12-11T18:47:23;99035.00;;;0.77;78.27
55347;BME280;41218;55.700;38.270;2022-12-11T18:52:23;99042.31;;;0.77;78.20
55347;BME280;41218;55.700;38.270;2022-12-11T18:57:24;99071.94;;;0.78;78.35
55347;BME280;41218;55.700;38.270;2022-12-11T19:02:25;99077.53;;;0.82;78.47
55347;BME280;41218;55.700;38.270;2022-12-11T19:07:26;99065.84;;;0.90;78.34
55347;BME280;41218;55.700;38.270;2022-12-11T19:12:27;99056.56;;;0.83;78.25
55347;BME280;41218;55.700;38.270;2022-12-11T19:17:27;99076.72;;;0.90;78.24
55347;BME280;41218;55.700;38.270;2022-12-11T19:22:28;99082.97;;;0.91;78.36
55347;BME280;41218;55.700;38.270;2022-12-11T19:27:28;99091.78;;;0.96;78.45
55347;BME280;41218;55.700;38.270;2022-12-11T19:32:30;99086.19;;;1.02;78.20
55347;BME280;41218;55.700;38.270;2022-12-11T19:37:31;99084.25;;;1.02;77.88
55347;BME280;41218;55.700;38.270;2022-12-11T19:42:32;99085.19;;;1.06;78.30
55347;BME280;41218;55.700;38.270;2022-12-11T19:47:33;99080.06;;;1.05;78.03
55347;BME280;41218;55.700;38.270;2022-12-11T19:52:35;99083.78;;;1.00;78.41
55347;BME280;41218;55.700;38.270;2022-12-11T19:57:35;99069.38;;;0.99;78.30
55347;BME280;41218;55.700;38.270;2022-12-11T20:02:36;99064.88;;;1.04;78.44
55347;BME280;41218;55.700;38.270;2022-12-11T20:07:37;99058.13;;;1.01;78.36
55347;BME280;41218;55.700;38.270;2022-12-11T20:12:37;99049.19;;;1.00;78.35
55347;BME280;41218;55.700;38.270;2022-12-11T20:17:38;99048.72;;;0.98;78.40
55347;BME280;41218;55.700;38.270;2022-12-11T20:22:43;99042.16;;;0.99;78.80
55347;BME280;41218;55.700;38.270;2022-12-11T20:27:44;99011.09;;;0.83;78.24
55347;BME280;41218;55.700;38.270;2022-12-11T20:32:45;98997.22;;;0.76;78.39
55347;BME280;41218;55.700;38.270;2022-12-11T20:37:45;98988.41;;;0.79;78.46
55347;BME280;41218;55.700;38.270;2022-12-11T20:42:46;99019.09;;;0.97;78.47
55347;BME280;41218;55.700;38.270;2022-12-11T20:47:46;98985.34;;;0.80;78.38
55347;BME280;41218;55.700;38.270;2022-12-11T20:52:47;98967.94;;;0.82;78.17
55347;BME280;41218;55.700;38.270;2022-12-11T20:57:48;98991.41;;;1.04;78.51
55347;BME280;41218;55.700;38.270;2022-12-11T21:02:49;98969.63;;;0.95;78.42
55347;BME280;41218;55.700;38.270;2022-12-11T21:07:52;98964.81;;;1.00;78.18
55347;BME280;41218;55.700;38.270;2022-12-11T21:12:53;98942.63;;;0.90;78.56
55347;BME280;41218;55.700;38.270;2022-12-11T21:17:53;98908.72;;;0.78;78.73
55347;BME280;41218;55.700;38.270;2022-12-11T21:22:54;98922.44;;;0.91;78.81
55347;BME280;41218;55.700;38.270;2022-12-11T21:27:56;98913.94;;;0.92;78.54
55347;BME280;41218;55.700;38.270;2022-12-11T21:32:57;98894.75;;;0.89;78.59
55347;BME280;41218;55.700;38.270;2022-12-11T21:37:58;98876.53;;;0.89;78.68
55347;BME280;41218;55.700;38.270;2022-12-11T21:42:59;98865.66;;;0.89;78.21
55347;BME280;41218;55.700;38.270;2022-12-11T21:47:59;98875.03;;;1.00;78.84
55347;BME280;41218;55.700;38.270;2022-12-11T21:53:00;98879.16;;;1.07;78.59
55347;BME280;41218;55.700;38.270;2022-12-11T21:58:01;98848.31;;;0.94;78.40
55347;BME280;41218;55.700;38.270;2022-12-11T22:03:02;98849.41;;;1.02;78.49
55347;BME280;41218;55.700;38.270;2022-12-11T22:08:03;98828.03;;;0.91;78.51
55347;BME280;41218;55.700;38.270;2022-12-11T22:13:03;98814.38;;;1.00;78.68
55347;BME280;41218;55.700;38.270;2022-12-11T22:18:04;98843.53;;;1.20;78.74
55347;BME280;41218;55.700;38.270;2022-12-11T22:23:05;98815.63;;;1.03;78.89
55347;BME280;41218;55.700;38.270;2022-12-11T22:28:05;98849.06;;;1.33;78.72
55347;BME280;41218;55.700;38.270;2022-12-11T22:33:06;98812.81;;;1.20;78.74
55347;BME280;41218;55.700;38.270;2022-12-11T22:38:07;98785.28;;;1.13;79.05
55347;BME280;41218;55.700;38.270;2022-12-11T22:43:08;98808.53;;;1.31;79.06
55347;BME280;41218;55.700;38.270;2022-12-11T22:48:09;98769.09;;;1.16;78.81
55347;BME280;41218;55.700;38.270;2022-12-11T22:53:09;98764.47;;;1.17;78.89
55347;BME280;41218;55.700;38.270;2022-12-11T22:58:10;98767.78;;;1.23;79.10
55347;BME280;41218;55.700;38.270;2022-12-11T23:03:11;98756.88;;;1.23;78.71
55347;BME280;41218;55.700;38.270;2022-12-11T23:08:12;98754.31;;;1.26;78.72
55347;BME280;41218;55.700;38.270;2022-12-11T23:13:12;98718.97;;;1.17;78.96
55347;BME280;41218;55.700;38.270;2022-12-11T23:18:13;98747.25;;;1.46;79.05
55347;BME280;41218;55.700;38.270;2022-12-11T23:23:13;98698.72;;;1.27;79.19
55347;BME280;41218;55.700;38.270;2022-12-11T23:28:14;98704.56;;;1.38;78.81
55347;BME280;41218;55.700;38.270;2022-12-11T23:33:15;98700.56;;;1.35;78.94
55347;BME280;41218;55.700;38.270;2022-12-11T23:38:16;98719.22;;;1.46;79.08
55347;BME280;41218;55.700;38.270;2022-12-11T23:43:22;98684.00;;;1.28;79.26
55347;BME280;41218;55.700;38.270;2022-12-11T23:48:23;98676.41;;;1.34;79.18
55347;BME280;41218;55.700;38.270;2022-12-11T23:53:23;98659.72;;;1.35;78.95
55347;BME280;41218;55.700;38.270;2022-12-11T23:58:26;98678.16;;;1.51;79.51
